sensor_id;sensor_type;location;lat;lon;timestamp;P1;durP1;ratioP1;P2;durP2;ratioP2
41865;SDS011;27539;43.222;27.558;2022-08-21T00:01:52;6.13;;;4.07;;
41865;SDS011;27539;43.222;27.558;2022-08-21T00:04:18;5.63;;;3.83;;
41865;SDS011;27539;43.222;27.558;2022-08-21T00:06:43;7.90;;;4.53;;
41865;SDS011;27539;43.222;27.558;2022-08-21T00:09:09;7.47;;;4.20;;
41865;SDS011;27539;43.222;27.558;2022-08-21T00:11:35;12.17;;;4.53;;
41865;SDS011;27539;43.222;27.558;2022-08-21T00:14:02;7.93;;;2.90;;
41865;SDS011;27539;43.222;27.558;2022-08-21T00:16:29;12.65;;;4.00;;
41865;SDS011;27539;43.222;27.558;2022-08-21T00:18:55;5.03;;;2.73;;
41865;SDS011;27539;43.222;27.558;2022-08-21T00:21:20;5.93;;;3.37;;
41865;SDS011;27539;43.222;27.558;2022-08-21T00:23:47;5.40;;;3.63;;
41865;SDS011;27539;43.222;27.558;2022-08-21T00:26:12;5.50;;;2.70;;
41865;SDS011;27539;43.222;27.558;2022-08-21T00:28:38;3.83;;;2.60;;
41865;SDS011;27539;43.222;27.558;2022-08-21T00:31:03;3.13;;;2.30;;
41865;SDS011;27539;43.222;27.558;2022-08-21T00:33:29;6.73;;;3.20;;
41865;SDS011;27539;43.222;27.558;2022-08-21T00:35:55;11.40;;;3.37;;
41865;SDS011;27539;43.222;27.558;2022-08-21T00:38:21;7.03;;;3.70;;
41865;SDS011;27539;43.222;27.558;2022-08-21T00:40:48;6.33;;;2.97;;
41865;SDS011;27539;43.222;27.558;2022-08-21T00:43:18;12.70;;;4.18;;
41865;SDS011;27539;43.222;27.558;2022-08-21T00:45:46;12.00;;;3.67;;
41865;SDS011;27539;43.222;27.558;2022-08-21T00:48:11;6.73;;;3.90;;
41865;SDS011;27539;43.222;27.558;2022-08-21T00:50:38;5.17;;;3.30;;
41865;SDS011;27539;43.222;27.558;2022-08-21T00:53:08;5.15;;;3.42;;
41865;SDS011;27539;43.222;27.558;2022-08-21T00:55:36;6.00;;;3.10;;
41865;SDS011;27539;43.222;27.558;2022-08-21T00:58:02;6.65;;;3.67;;
41865;SDS011;27539;43.222;27.558;2022-08-21T01:00:32;6.47;;;3.72;;
41865;SDS011;27539;43.222;27.558;2022-08-21T01:02:59;9.23;;;3.67;;
41865;SDS011;27539;43.222;27.558;2022-08-21T01:05:26;7.40;;;4.07;;
41865;SDS011;27539;43.222;27.558;2022-08-21T01:07:52;6.13;;;3.67;;
41865;SDS011;27539;43.222;27.558;2022-08-21T01:10:22;9.48;;;4.47;;
41865;SDS011;27539;43.222;27.558;2022-08-21T01:12:48;7.30;;;4.53;;
41865;SDS011;27539;43.222;27.558;2022-08-21T01:15:16;13.95;;;4.90;;
41865;SDS011;27539;43.222;27.558;2022-08-21T01:17:44;18.30;;;5.28;;
41865;SDS011;27539;43.222;27.558;2022-08-21T01:20:10;6.37;;;4.53;;
41865;SDS011;27539;43.222;27.558;2022-08-21T01:22:36;7.40;;;4.78;;
41865;SDS011;27539;43.222;27.558;2022-08-21T01:25:06;11.27;;;5.07;;
41865;SDS011;27539;43.222;27.558;2022-08-21T01:27:33;6.57;;;4.05;;
41865;SDS011;27539;43.222;27.558;2022-08-21T01:30:02;8.90;;;4.53;;
41865;SDS011;27539;43.222;27.558;2022-08-21T01:32:37;7.32;;;4.60;;
41865;SDS011;27539;43.222;27.558;2022-08-21T01:35:03;4.17;;;3.33;;
41865;SDS011;27539;43.222;27.558;2022-08-21T01:37:30;7.03;;;3.75;;
41865;SDS011;27539;43.222;27.558;2022-08-21T01:39:56;5.27;;;3.73;;
41865;SDS011;27539;43.222;27.558;2022-08-21T01:42:22;8.63;;;4.47;;
41865;SDS011;27539;43.222;27.558;2022-08-21T01:44:47;7.60;;;5.38;;
41865;SDS011;27539;43.222;27.558;2022-08-21T01:47:13;5.10;;;4.10;;
41865;SDS011;27539;43.222;27.558;2022-08-21T01:52:06;7.18;;;4.20;;
41865;SDS011;27539;43.222;27.558;2022-08-21T01:54:32;9.43;;;5.10;;
41865;SDS011;27539;43.222;27.558;2022-08-21T01:56:58;8.53;;;4.43;;
41865;SDS011;27539;43.222;27.558;2022-08-21T01:59:24;9.38;;;3.80;;
41865;SDS011;27539;43.222;27.558;2022-08-21T02:01:50;8.27;;;5.38;;
41865;SDS011;27539;43.222;27.558;2022-08-21T02:04:16;5.95;;;4.03;;
41865;SDS011;27539;43.222;27.558;2022-08-21T02:06:42;9.20;;;4.07;;
41865;SDS011;27539;43.222;27.558;2022-08-21T02:09:09;9.10;;;5.15;;
41865;SDS011;27539;43.222;27.558;2022-08-21T02:11:36;7.93;;;3.75;;
41865;SDS011;27539;43.222;27.558;2022-08-21T02:14:05;8.25;;;4.35;;
41865;SDS011;27539;43.222;27.558;2022-08-21T02:16:35;6.57;;;4.75;;
41865;SDS011;27539;43.222;27.558;2022-08-21T02:19:01;11.10;;;5.30;;
41865;SDS011;27539;43.222;27.558;2022-08-21T02:21:26;5.87;;;3.40;;
41865;SDS011;27539;43.222;27.558;2022-08-21T02:23:52;9.95;;;5.50;;
41865;SDS011;27539;43.222;27.558;2022-08-21T02:26:17;16.70;;;5.30;;
41865;SDS011;27539;43.222;27.558;2022-08-21T02:28:43;5.50;;;4.05;;
41865;SDS011;27539;43.222;27.558;2022-08-21T02:31:09;10.38;;;4.95;;
41865;SDS011;27539;43.222;27.558;2022-08-21T02:33:35;8.13;;;4.70;;
41865;SDS011;27539;43.222;27.558;2022-08-21T02:36:00;6.93;;;4.60;;
41865;SDS011;27539;43.222;27.558;2022-08-21T02:38:29;5.47;;;4.03;;
41865;SDS011;27539;43.222;27.558;2022-08-21T02:40:58;6.68;;;4.10;;
41865;SDS011;27539;43.222;27.558;2022-08-21T02:43:25;8.15;;;4.03;;
41865;SDS011;27539;43.222;27.558;2022-08-21T02:45:53;6.07;;;4.28;;
41865;SDS011;27539;43.222;27.558;2022-08-21T02:48:22;6.22;;;3.85;;
41865;SDS011;27539;43.222;27.558;2022-08-21T02:50:58;5.53;;;3.67;;
41865;SDS011;27539;43.222;27.558;2022-08-21T02:53:26;5.88;;;3.53;;
41865;SDS011;27539;43.222;27.558;2022-08-21T02:55:53;5.43;;;3.97;;
41865;SDS011;27539;43.222;27.558;2022-08-21T02:58:22;5.25;;;4.10;;
41865;SDS011;27539;43.222;27.558;2022-08-21T03:00:51;6.10;;;4.57;;
41865;SDS011;27539;43.222;27.558;2022-08-21T03:03:17;5.23;;;3.53;;
41865;SDS011;27539;43.222;27.558;2022-08-21T03:05:43;5.33;;;4.50;;
41865;SDS011;27539;43.222;27.558;2022-08-21T03:08:10;7.03;;;3.73;;
41865;SDS011;27539;43.222;27.558;2022-08-21T03:10:38;4.68;;;3.22;;
41865;SDS011;27539;43.222;27.558;2022-08-21T03:13:05;4.40;;;3.42;;
41865;SDS011;27539;43.222;27.558;2022-08-21T03:15:31;5.28;;;3.55;;
41865;SDS011;27539;43.222;27.558;2022-08-21T03:17:57;5.00;;;3.67;;
41865;SDS011;27539;43.222;27.558;2022-08-21T03:20:23;7.03;;;4.93;;
41865;SDS011;27539;43.222;27.558;2022-08-21T03:22:51;6.10;;;3.17;;
41865;SDS011;27539;43.222;27.558;2022-08-21T03:25:17;10.85;;;3.42;;
41865;SDS011;27539;43.222;27.558;2022-08-21T03:27:43;8.60;;;4.47;;
41865;SDS011;27539;43.222;27.558;2022-08-21T03:30:09;7.73;;;4.60;;
41865;SDS011;27539;43.222;27.558;2022-08-21T03:32:36;6.32;;;3.70;;
41865;SDS011;27539;43.222;27.558;2022-08-21T03:35:02;9.10;;;5.32;;
41865;SDS011;27539;43.222;27.558;2022-08-21T03:37:29;6.60;;;4.05;;
41865;SDS011;27539;43.222;27.558;2022-08-21T03:39:54;7.50;;;3.77;;
41865;SDS011;27539;43.222;27.558;2022-08-21T03:42:20;5.67;;;4.07;;
41865;SDS011;27539;43.222;27.558;2022-08-21T03:44:45;8.10;;;4.80;;
41865;SDS011;27539;43.222;27.558;2022-08-21T03:47:11;7.95;;;3.90;;
41865;SDS011;27539;43.222;27.558;2022-08-21T03:49:36;5.78;;;4.20;;
41865;SDS011;27539;43.222;27.558;2022-08-21T03:52:03;6.70;;;3.80;;
41865;SDS011;27539;43.222;27.558;2022-08-21T03:54:29;8.80;;;4.77;;
41865;SDS011;27539;43.222;27.558;2022-08-21T03:56:54;7.00;;;4.38;;
41865;SDS011;27539;43.222;27.558;2022-08-21T03:59:20;5.07;;;3.63;;
41865;SDS011;27539;43.222;27.558;2022-08-21T04:04:23;4.32;;;2.85;;
41865;SDS011;27539;43.222;27.558;2022-08-21T04:06:49;6.70;;;3.58;;
41865;SDS011;27539;43.222;27.558;2022-08-21T04:09:15;4.53;;;3.40;;
41865;SDS011;27539;43.222;27.558;2022-08-21T04:11:41;4.65;;;3.75;;
41865;SDS011;27539;43.222;27.558;2022-08-21T04:14:07;6.10;;;3.97;;
41865;SDS011;27539;43.222;27.558;2022-08-21T04:16:33;6.07;;;3.80;;
41865;SDS011;27539;43.222;27.558;2022-08-21T04:18:59;6.53;;;3.95;;
41865;SDS011;27539;43.222;27.558;2022-08-21T04:21:24;7.17;;;4.63;;
41865;SDS011;27539;43.222;27.558;2022-08-21T04:23:50;7.05;;;3.85;;
41865;SDS011;27539;43.222;27.558;2022-08-21T04:26:15;7.13;;;4.75;;
41865;SDS011;27539;43.222;27.558;2022-08-21T04:28:41;9.60;;;5.55;;
41865;SDS011;27539;43.222;27.558;2022-08-21T04:31:07;9.47;;;3.60;;
41865;SDS011;27539;43.222;27.558;2022-08-21T04:35:59;7.28;;;3.80;;
41865;SDS011;27539;43.222;27.558;2022-08-21T04:38:24;9.50;;;5.15;;
41865;SDS011;27539;43.222;27.558;2022-08-21T04:40:49;6.95;;;4.03;;
41865;SDS011;27539;43.222;27.558;2022-08-21T04:43:16;7.35;;;4.80;;
41865;SDS011;27539;43.222;27.558;2022-08-21T04:45:44;11.93;;;5.97;;
41865;SDS011;27539;43.222;27.558;2022-08-21T04:48:13;8.40;;;5.22;;
41865;SDS011;27539;43.222;27.558;2022-08-21T04:50:51;7.50;;;4.57;;
41865;SDS011;27539;43.222;27.558;2022-08-21T04:53:49;7.07;;;3.97;;
41865;SDS011;27539;43.222;27.558;2022-08-21T04:56:28;9.10;;;4.95;;
41865;SDS011;27539;43.222;27.558;2022-08-21T04:58:57;8.45;;;4.38;;
41865;SDS011;27539;43.222;27.558;2022-08-21T05:01:25;10.02;;;5.65;;
41865;SDS011;27539;43.222;27.558;2022-08-21T05:03:54;7.68;;;5.10;;
41865;SDS011;27539;43.222;27.558;2022-08-21T05:06:22;7.32;;;4.90;;
41865;SDS011;27539;43.222;27.558;2022-08-21T05:08:50;8.45;;;4.97;;
41865;SDS011;27539;43.222;27.558;2022-08-21T05:11:18;10.80;;;7.30;;
41865;SDS011;27539;43.222;27.558;2022-08-21T05:13:45;8.48;;;5.32;;
41865;SDS011;27539;43.222;27.558;2022-08-21T05:16:10;7.83;;;4.17;;
41865;SDS011;27539;43.222;27.558;2022-08-21T05:18:36;4.60;;;3.10;;
41865;SDS011;27539;43.222;27.558;2022-08-21T05:21:02;8.25;;;4.50;;
41865;SDS011;27539;43.222;27.558;2022-08-21T05:23:27;16.40;;;5.80;;
41865;SDS011;27539;43.222;27.558;2022-08-21T05:25:53;11.60;;;4.80;;
41865;SDS011;27539;43.222;27.558;2022-08-21T05:28:20;6.72;;;4.28;;
41865;SDS011;27539;43.222;27.558;2022-08-21T05:30:45;14.00;;;4.40;;
41865;SDS011;27539;43.222;27.558;2022-08-21T05:33:11;6.63;;;4.47;;
41865;SDS011;27539;43.222;27.558;2022-08-21T05:35:37;6.70;;;4.20;;
41865;SDS011;27539;43.222;27.558;2022-08-21T05:38:03;7.20;;;3.63;;
41865;SDS011;27539;43.222;27.558;2022-08-21T05:40:29;4.70;;;3.33;;
41865;SDS011;27539;43.222;27.558;2022-08-21T05:42:55;4.37;;;2.97;;
41865;SDS011;27539;43.222;27.558;2022-08-21T05:45:25;3.60;;;3.07;;
41865;SDS011;27539;43.222;27.558;2022-08-21T05:47:52;4.72;;;3.63;;
41865;SDS011;27539;43.222;27.558;2022-08-21T05:50:18;6.17;;;2.93;;
41865;SDS011;27539;43.222;27.558;2022-08-21T05:52:44;5.57;;;4.13;;
41865;SDS011;27539;43.222;27.558;2022-08-21T05:55:09;4.90;;;4.03;;
41865;SDS011;27539;43.222;27.558;2022-08-21T05:57:35;4.57;;;3.37;;
41865;SDS011;27539;43.222;27.558;2022-08-21T06:00:00;3.10;;;2.80;;
41865;SDS011;27539;43.222;27.558;2022-08-21T06:02:26;4.00;;;2.50;;
41865;SDS011;27539;43.222;27.558;2022-08-21T06:04:51;5.57;;;2.87;;
41865;SDS011;27539;43.222;27.558;2022-08-21T06:07:17;5.57;;;3.80;;
41865;SDS011;27539;43.222;27.558;2022-08-21T06:09:42;3.23;;;1.90;;
41865;SDS011;27539;43.222;27.558;2022-08-21T06:12:08;3.40;;;2.60;;
41865;SDS011;27539;43.222;27.558;2022-08-21T06:14:37;5.18;;;2.17;;
41865;SDS011;27539;43.222;27.558;2022-08-21T06:17:08;2.50;;;1.45;;
41865;SDS011;27539;43.222;27.558;2022-08-21T06:19:35;1.48;;;1.38;;
41865;SDS011;27539;43.222;27.558;2022-08-21T06:22:01;1.40;;;0.93;;
41865;SDS011;27539;43.222;27.558;2022-08-21T06:24:27;2.47;;;1.88;;
41865;SDS011;27539;43.222;27.558;2022-08-21T06:26:53;1.80;;;1.60;;
41865;SDS011;27539;43.222;27.558;2022-08-21T06:29:19;2.37;;;1.57;;
41865;SDS011;27539;43.222;27.558;2022-08-21T06:31:46;2.40;;;1.48;;
41865;SDS011;27539;43.222;27.558;2022-08-21T06:34:13;2.97;;;2.38;;
41865;SDS011;27539;43.222;27.558;2022-08-21T06:36:39;5.35;;;1.65;;
41865;SDS011;27539;43.222;27.558;2022-08-21T06:39:05;1.30;;;1.20;;
41865;SDS011;27539;43.222;27.558;2022-08-21T06:41:31;3.63;;;1.57;;
41865;SDS011;27539;43.222;27.558;2022-08-21T06:43:57;2.72;;;1.45;;
41865;SDS011;27539;43.222;27.558;2022-08-21T06:46:23;1.00;;;0.93;;
41865;SDS011;27539;43.222;27.558;2022-08-21T06:48:51;3.60;;;1.10;;
41865;SDS011;27539;43.222;27.558;2022-08-21T06:51:16;1.27;;;1.17;;
41865;SDS011;27539;43.222;27.558;2022-08-21T06:53:42;2.93;;;1.87;;
41865;SDS011;27539;43.222;27.558;2022-08-21T06:56:08;2.40;;;1.60;;
41865;SDS011;27539;43.222;27.558;2022-08-21T06:58:33;4.97;;;1.80;;
41865;SDS011;27539;43.222;27.558;2022-08-21T07:00:59;1.40;;;1.30;;
41865;SDS011;27539;43.222;27.558;2022-08-21T07:03:35;5.73;;;2.00;;
41865;SDS011;27539;43.222;27.558;2022-08-21T07:06:03;2.20;;;1.13;;
41865;SDS011;27539;43.222;27.558;2022-08-21T07:08:29;1.70;;;1.30;;
41865;SDS011;27539;43.222;27.558;2022-08-21T07:10:56;1.47;;;1.33;;
41865;SDS011;27539;43.222;27.558;2022-08-21T07:13:22;4.13;;;1.35;;
41865;SDS011;27539;43.222;27.558;2022-08-21T07:15:48;1.90;;;1.37;;
41865;SDS011;27539;43.222;27.558;2022-08-21T07:18:13;1.30;;;1.20;;
41865;SDS011;27539;43.222;27.558;2022-08-21T07:20:40;3.47;;;2.55;;
41865;SDS011;27539;43.222;27.558;2022-08-21T07:23:08;1.55;;;1.23;;
41865;SDS011;27539;43.222;27.558;2022-08-21T07:25:36;2.28;;;1.52;;
41865;SDS011;27539;43.222;27.558;2022-08-21T07:28:02;3.03;;;1.13;;
41865;SDS011;27539;43.222;27.558;2022-08-21T07:30:27;2.00;;;1.20;;
41865;SDS011;27539;43.222;27.558;2022-08-21T07:32:53;2.00;;;1.30;;
41865;SDS011;27539;43.222;27.558;2022-08-21T07:35:19;2.47;;;1.20;;
41865;SDS011;27539;43.222;27.558;2022-08-21T07:37:45;1.48;;;1.20;;
41865;SDS011;27539;43.222;27.558;2022-08-21T07:40:11;3.10;;;1.67;;
41865;SDS011;27539;43.222;27.558;2022-08-21T07:42:41;1.45;;;1.35;;
41865;SDS011;27539;43.222;27.558;2022-08-21T07:45:08;5.65;;;1.48;;
41865;SDS011;27539;43.222;27.558;2022-08-21T07:50:00;5.68;;;1.70;;
41865;SDS011;27539;43.222;27.558;2022-08-21T07:52:26;2.10;;;1.67;;
41865;SDS011;27539;43.222;27.558;2022-08-21T07:54:51;1.40;;;1.30;;
41865;SDS011;27539;43.222;27.558;2022-08-21T07:57:18;3.10;;;1.92;;
41865;SDS011;27539;43.222;27.558;2022-08-21T07:59:43;1.67;;;0.87;;
41865;SDS011;27539;43.222;27.558;2022-08-21T08:02:09;2.67;;;1.70;;
41865;SDS011;27539;43.222;27.558;2022-08-21T08:04:34;1.77;;;1.10;;
41865;SDS011;27539;43.222;27.558;2022-08-21T08:07:00;2.20;;;1.50;;
41865;SDS011;27539;43.222;27.558;2022-08-21T08:09:25;1.23;;;0.97;;
41865;SDS011;27539;43.222;27.558;2022-08-21T08:11:50;2.40;;;1.33;;
41865;SDS011;27539;43.222;27.558;2022-08-21T08:14:16;1.77;;;0.97;;
41865;SDS011;27539;43.222;27.558;2022-08-21T08:16:42;1.30;;;1.13;;
41865;SDS011;27539;43.222;27.558;2022-08-21T08:19:07;4.00;;;1.10;;
41865;SDS011;27539;43.222;27.558;2022-08-21T08:21:33;3.53;;;1.27;;
41865;SDS011;27539;43.222;27.558;2022-08-21T08:23:59;2.58;;;1.35;;
41865;SDS011;27539;43.222;27.558;2022-08-21T08:26:25;3.85;;;1.80;;
41865;SDS011;27539;43.222;27.558;2022-08-21T08:28:51;1.70;;;1.17;;
41865;SDS011;27539;43.222;27.558;2022-08-21T08:31:16;1.40;;;1.17;;
41865;SDS011;27539;43.222;27.558;2022-08-21T08:33:42;1.37;;;1.27;;
41865;SDS011;27539;43.222;27.558;2022-08-21T08:36:12;1.87;;;1.53;;
41865;SDS011;27539;43.222;27.558;2022-08-21T08:38:42;0.85;;;0.82;;
41865;SDS011;27539;43.222;27.558;2022-08-21T08:41:12;1.58;;;1.30;;
41865;SDS011;27539;43.222;27.558;2022-08-21T08:43:40;3.67;;;1.60;;
41865;SDS011;27539;43.222;27.558;2022-08-21T08:46:12;3.65;;;2.03;;
41865;SDS011;27539;43.222;27.558;2022-08-21T08:51:18;5.50;;;1.75;;
41865;SDS011;27539;43.222;27.558;2022-08-21T08:53:51;5.63;;;1.70;;
41865;SDS011;27539;43.222;27.558;2022-08-21T08:56:21;2.30;;;0.98;;
41865;SDS011;27539;43.222;27.558;2022-08-21T08:58:50;3.35;;;2.05;;
41865;SDS011;27539;43.222;27.558;2022-08-21T09:01:18;2.75;;;1.83;;
41865;SDS011;27539;43.222;27.558;2022-08-21T09:03:45;9.07;;;2.42;;
41865;SDS011;27539;43.222;27.558;2022-08-21T09:25:30;2.10;;;1.90;;
41865;SDS011;27539;43.222;27.558;2022-08-21T09:27:57;4.53;;;1.77;;
41865;SDS011;27539;43.222;27.558;2022-08-21T09:30:25;2.60;;;1.67;;
41865;SDS011;27539;43.222;27.558;2022-08-21T09:32:53;1.25;;;1.15;;
41865;SDS011;27539;43.222;27.558;2022-08-21T09:35:20;1.70;;;1.30;;
41865;SDS011;27539;43.222;27.558;2022-08-21T09:37:48;1.85;;;1.13;;
41865;SDS011;27539;43.222;27.558;2022-08-21T09:45:42;1.63;;;1.13;;
41865;SDS011;27539;43.222;27.558;2022-08-21T09:50:36;1.58;;;1.10;;
41865;SDS011;27539;43.222;27.558;2022-08-21T09:53:03;0.85;;;0.75;;
41865;SDS011;27539;43.222;27.558;2022-08-21T09:55:32;4.80;;;1.85;;
41865;SDS011;27539;43.222;27.558;2022-08-21T09:58:18;2.42;;;1.75;;
41865;SDS011;27539;43.222;27.558;2022-08-21T10:00:45;2.70;;;1.48;;
41865;SDS011;27539;43.222;27.558;2022-08-21T10:03:22;1.35;;;1.25;;
41865;SDS011;27539;43.222;27.558;2022-08-21T10:05:50;2.13;;;1.55;;
41865;SDS011;27539;43.222;27.558;2022-08-21T10:08:18;5.03;;;0.82;;
41865;SDS011;27539;43.222;27.558;2022-08-21T10:10:45;1.15;;;1.05;;
41865;SDS011;27539;43.222;27.558;2022-08-21T10:13:41;0.80;;;0.80;;
41865;SDS011;27539;43.222;27.558;2022-08-21T10:18:40;6.25;;;2.30;;
41865;SDS011;27539;43.222;27.558;2022-08-21T10:21:23;1.13;;;0.93;;
41865;SDS011;27539;43.222;27.558;2022-08-21T10:24:18;2.58;;;1.55;;
41865;SDS011;27539;43.222;27.558;2022-08-21T10:26:57;2.25;;;1.55;;
41865;SDS011;27539;43.222;27.558;2022-08-21T10:32:10;1.65;;;1.08;;
41865;SDS011;27539;43.222;27.558;2022-08-21T10:42:47;2.55;;;1.10;;
41865;SDS011;27539;43.222;27.558;2022-08-21T10:48:05;1.83;;;1.20;;
41865;SDS011;27539;43.222;27.558;2022-08-21T10:50:42;2.22;;;1.38;;
41865;SDS011;27539;43.222;27.558;2022-08-21T10:56:15;1.50;;;1.10;;
41865;SDS011;27539;43.222;27.558;2022-08-21T10:58:59;1.23;;;1.15;;
41865;SDS011;27539;43.222;27.558;2022-08-21T11:05:11;1.13;;;1.02;;
41865;SDS011;27539;43.222;27.558;2022-08-21T11:10:30;0.60;;;0.60;;
41865;SDS011;27539;43.222;27.558;2022-08-21T11:13:02;0.75;;;0.75;;
41865;SDS011;27539;43.222;27.558;2022-08-21T11:18:25;3.53;;;1.45;;
41865;SDS011;27539;43.222;27.558;2022-08-21T11:20:56;1.42;;;0.90;;
41865;SDS011;27539;43.222;27.558;2022-08-21T11:29:38;7.47;;;1.23;;
41865;SDS011;27539;43.222;27.558;2022-08-21T11:32:25;0.82;;;0.80;;
41865;SDS011;27539;43.222;27.558;2022-08-21T11:38:01;1.60;;;1.05;;
41865;SDS011;27539;43.222;27.558;2022-08-21T11:46:08;8.32;;;1.10;;
41865;SDS011;27539;43.222;27.558;2022-08-21T11:51:39;2.95;;;1.05;;
41865;SDS011;27539;43.222;27.558;2022-08-21T11:54:28;0.70;;;0.47;;
41865;SDS011;27539;43.222;27.558;2022-08-21T11:57:02;2.30;;;1.27;;
41865;SDS011;27539;43.222;27.558;2022-08-21T11:59:40;1.35;;;1.00;;
41865;SDS011;27539;43.222;27.558;2022-08-21T12:02:12;1.23;;;0.88;;
41865;SDS011;27539;43.222;27.558;2022-08-21T12:04:45;0.93;;;0.82;;
41865;SDS011;27539;43.222;27.558;2022-08-21T12:07:15;6.43;;;0.98;;
41865;SDS011;27539;43.222;27.558;2022-08-21T12:09:54;0.70;;;0.70;;
41865;SDS011;27539;43.222;27.558;2022-08-21T12:12:23;1.63;;;1.33;;
41865;SDS011;27539;43.222;27.558;2022-08-21T12:15:05;1.23;;;1.00;;
41865;SDS011;27539;43.222;27.558;2022-08-21T12:17:39;1.65;;;1.13;;
41865;SDS011;27539;43.222;27.558;2022-08-21T12:22:53;1.63;;;1.15;;
41865;SDS011;27539;43.222;27.558;2022-08-21T12:25:35;1.15;;;0.93;;
41865;SDS011;27539;43.222;27.558;2022-08-21T12:28:06;0.80;;;0.80;;
41865;SDS011;27539;43.222;27.558;2022-08-21T12:30:36;1.92;;;1.55;;
41865;SDS011;27539;43.222;27.558;2022-08-21T12:33:05;8.20;;;2.65;;
41865;SDS011;27539;43.222;27.558;2022-08-21T12:35:44;3.50;;;1.33;;
41865;SDS011;27539;43.222;27.558;2022-08-21T12:38:15;3.00;;;1.77;;
41865;SDS011;27539;43.222;27.558;2022-08-21T12:40:55;6.60;;;1.60;;
41865;SDS011;27539;43.222;27.558;2022-08-21T12:43:29;2.22;;;1.48;;
41865;SDS011;27539;43.222;27.558;2022-08-21T12:46:03;1.90;;;1.75;;
41865;SDS011;27539;43.222;27.558;2022-08-21T12:48:39;1.90;;;1.67;;
41865;SDS011;27539;43.222;27.558;2022-08-21T12:56:14;1.75;;;1.40;;
41865;SDS011;27539;43.222;27.558;2022-08-21T12:58:44;1.70;;;1.38;;
41865;SDS011;27539;43.222;27.558;2022-08-21T13:01:33;3.25;;;1.63;;
41865;SDS011;27539;43.222;27.558;2022-08-21T13:04:04;3.67;;;1.58;;
41865;SDS011;27539;43.222;27.558;2022-08-21T13:06:38;1.42;;;1.17;;
41865;SDS011;27539;43.222;27.558;2022-08-21T13:09:07;5.10;;;1.20;;
41865;SDS011;27539;43.222;27.558;2022-08-21T13:11:36;2.72;;;1.67;;
41865;SDS011;27539;43.222;27.558;2022-08-21T13:14:04;1.83;;;1.70;;
41865;SDS011;27539;43.222;27.558;2022-08-21T13:16:30;1.92;;;1.50;;
41865;SDS011;27539;43.222;27.558;2022-08-21T13:19:01;1.65;;;1.40;;
41865;SDS011;27539;43.222;27.558;2022-08-21T13:21:32;1.67;;;1.27;;
41865;SDS011;27539;43.222;27.558;2022-08-21T13:26:43;17.58;;;2.83;;
41865;SDS011;27539;43.222;27.558;2022-08-21T13:29:10;1.80;;;1.23;;
41865;SDS011;27539;43.222;27.558;2022-08-21T13:31:38;7.72;;;2.13;;
41865;SDS011;27539;43.222;27.558;2022-08-21T13:34:07;1.83;;;1.17;;
41865;SDS011;27539;43.222;27.558;2022-08-21T13:36:36;1.73;;;1.27;;
41865;SDS011;27539;43.222;27.558;2022-08-21T13:39:06;1.65;;;1.33;;
41865;SDS011;27539;43.222;27.558;2022-08-21T13:41:34;2.20;;;1.38;;
41865;SDS011;27539;43.222;27.558;2022-08-21T13:44:03;3.72;;;1.88;;
41865;SDS011;27539;43.222;27.558;2022-08-21T13:46:39;1.40;;;1.23;;
41865;SDS011;27539;43.222;27.558;2022-08-21T13:49:05;1.45;;;1.35;;
41865;SDS011;27539;43.222;27.558;2022-08-21T13:51:32;5.20;;;2.20;;
41865;SDS011;27539;43.222;27.558;2022-08-21T13:53:58;2.75;;;1.45;;
41865;SDS011;27539;43.222;27.558;2022-08-21T13:58:51;1.33;;;1.23;;
41865;SDS011;27539;43.222;27.558;2022-08-21T14:01:20;8.38;;;1.63;;
41865;SDS011;27539;43.222;27.558;2022-08-21T14:03:50;1.70;;;1.60;;
41865;SDS011;27539;43.222;27.558;2022-08-21T14:06:19;3.15;;;1.45;;
41865;SDS011;27539;43.222;27.558;2022-08-21T14:08:54;1.15;;;1.02;;
41865;SDS011;27539;43.222;27.558;2022-08-21T14:11:23;1.45;;;1.35;;
41865;SDS011;27539;43.222;27.558;2022-08-21T14:13:55;3.05;;;1.33;;
41865;SDS011;27539;43.222;27.558;2022-08-21T14:16:22;2.25;;;2.05;;
41865;SDS011;27539;43.222;27.558;2022-08-21T14:21:47;2.08;;;1.55;;
41865;SDS011;27539;43.222;27.558;2022-08-21T14:24:38;1.87;;;1.13;;
41865;SDS011;27539;43.222;27.558;2022-08-21T14:27:05;2.67;;;1.60;;
41865;SDS011;27539;43.222;27.558;2022-08-21T14:29:36;2.30;;;1.95;;
41865;SDS011;27539;43.222;27.558;2022-08-21T14:34:45;4.75;;;1.48;;
41865;SDS011;27539;43.222;27.558;2022-08-21T14:37:10;2.70;;;1.60;;
41865;SDS011;27539;43.222;27.558;2022-08-21T14:39:36;4.13;;;1.77;;
41865;SDS011;27539;43.222;27.558;2022-08-21T14:42:01;3.10;;;1.70;;
41865;SDS011;27539;43.222;27.558;2022-08-21T14:44:27;3.45;;;1.90;;
41865;SDS011;27539;43.222;27.558;2022-08-21T14:46:53;3.73;;;1.97;;
41865;SDS011;27539;43.222;27.558;2022-08-21T14:49:20;2.40;;;1.70;;
41865;SDS011;27539;43.222;27.558;2022-08-21T14:51:45;10.23;;;3.43;;
41865;SDS011;27539;43.222;27.558;2022-08-21T14:54:11;32.43;;;12.40;;
41865;SDS011;27539;43.222;27.558;2022-08-21T14:56:36;21.93;;;10.57;;
41865;SDS011;27539;43.222;27.558;2022-08-21T14:59:06;25.63;;;8.80;;
41865;SDS011;27539;43.222;27.558;2022-08-21T15:01:34;10.35;;;3.83;;
41865;SDS011;27539;43.222;27.558;2022-08-21T15:04:02;4.60;;;1.77;;
41865;SDS011;27539;43.222;27.558;2022-08-21T15:06:27;2.20;;;1.73;;
41865;SDS011;27539;43.222;27.558;2022-08-21T15:08:53;1.60;;;1.50;;
41865;SDS011;27539;43.222;27.558;2022-08-21T15:11:20;3.67;;;2.07;;
41865;SDS011;27539;43.222;27.558;2022-08-21T15:13:48;2.08;;;1.88;;
41865;SDS011;27539;43.222;27.558;2022-08-21T15:16:20;4.18;;;2.03;;
41865;SDS011;27539;43.222;27.558;2022-08-21T15:18:46;6.37;;;1.73;;
41865;SDS011;27539;43.222;27.558;2022-08-21T15:21:11;2.70;;;2.10;;
41865;SDS011;27539;43.222;27.558;2022-08-21T15:23:37;5.23;;;1.73;;
41865;SDS011;27539;43.222;27.558;2022-08-21T15:26:02;2.10;;;1.93;;
41865;SDS011;27539;43.222;27.558;2022-08-21T15:28:28;3.47;;;2.10;;
41865;SDS011;27539;43.222;27.558;2022-08-21T15:30:54;2.83;;;1.57;;
41865;SDS011;27539;43.222;27.558;2022-08-21T15:33:19;2.37;;;1.77;;
41865;SDS011;27539;43.222;27.558;2022-08-21T15:35:45;3.23;;;2.70;;
41865;SDS011;27539;43.222;27.558;2022-08-21T15:38:11;2.20;;;1.90;;
41865;SDS011;27539;43.222;27.558;2022-08-21T15:40:37;3.40;;;2.25;;
41865;SDS011;27539;43.222;27.558;2022-08-21T15:43:04;2.72;;;1.67;;
41865;SDS011;27539;43.222;27.558;2022-08-21T15:45:32;3.10;;;2.20;;
41865;SDS011;27539;43.222;27.558;2022-08-21T15:47:58;2.85;;;2.10;;
41865;SDS011;27539;43.222;27.558;2022-08-21T15:50:24;2.07;;;1.43;;
41865;SDS011;27539;43.222;27.558;2022-08-21T15:52:51;2.58;;;1.50;;
41865;SDS011;27539;43.222;27.558;2022-08-21T15:55:17;3.80;;;1.50;;
41865;SDS011;27539;43.222;27.558;2022-08-21T15:57:44;3.80;;;1.57;;
41865;SDS011;27539;43.222;27.558;2022-08-21T16:00:19;2.50;;;1.88;;
41865;SDS011;27539;43.222;27.558;2022-08-21T16:02:48;3.00;;;1.55;;
41865;SDS011;27539;43.222;27.558;2022-08-21T16:05:16;2.15;;;1.90;;
41865;SDS011;27539;43.222;27.558;2022-08-21T16:07:43;2.25;;;1.65;;
41865;SDS011;27539;43.222;27.558;2022-08-21T16:10:09;2.55;;;2.03;;
41865;SDS011;27539;43.222;27.558;2022-08-21T16:12:40;1.85;;;1.38;;
41865;SDS011;27539;43.222;27.558;2022-08-21T16:15:11;2.92;;;2.25;;
41865;SDS011;27539;43.222;27.558;2022-08-21T16:17:38;3.65;;;2.25;;
41865;SDS011;27539;43.222;27.558;2022-08-21T16:20:07;3.60;;;2.10;;
41865;SDS011;27539;43.222;27.558;2022-08-21T16:22:35;3.92;;;2.63;;
41865;SDS011;27539;43.222;27.558;2022-08-21T16:25:01;4.00;;;2.20;;